Time;durP1;ratioP1;P1;durP2;ratioP2;P2;SDS_P1;SDS_P2;PMS_P1;PMS_P2;Temp;Humidity;BMP_temperature;BMP_pressure;BME280_temperature;BME280_humidity;BME280_pressure;Samples;Min_cycle;Max_cycle;Signal;HPM_P1;HPM_P2
2022/01/06 00:00:45;;;;;;;22.08;2.00;;;;;;;-146.48;100.00;46723.69;5304958;28;20093;-69
2022/01/06 00:03:16;;;;;;;19.92;1.40;;;;;;;-146.48;100.00;46755.63;5306605;28;20028;-68
2022/01/06 00:05:47;;;;;;;22.52;2.20;;;;;;;-146.48;100.00;46707.72;5304942;28;20036;-69
2022/01/06 00:08:18;;;;;;;19.60;2.75;;;;;;;-146.48;100.00;46873.44;5306390;28;20024;-68
2022/01/06 00:10:51;;;;;;;23.00;2.05;;;;;;;-146.48;100.00;46881.44;5305675;28;20103;-69
2022/01/06 00:14:10;;;;;;;19.35;1.95;;;;;;;-146.48;100.00;46919.38;5305423;28;20387;-69
2022/01/06 00:24:29;;;;;;;20.80;2.20;;;;;;;-146.48;100.00;47043.19;5306333;28;20039;-68
2022/01/06 00:27:01;;;;;;;24.02;3.05;;;;;;;-146.48;100.00;46897.41;5304806;28;20028;-69
2022/01/06 00:29:32;;;;;;;16.13;1.90;;;;;;;-146.48;100.00;47027.22;5306072;28;20081;-68
2022/01/06 00:32:03;;;;;;;19.48;1.60;;;;;;;-146.48;100.00;47015.25;5305223;28;20050;-70
2022/01/06 00:34:35;;;;;;;15.68;1.70;;;;;;;-146.48;100.00;46963.31;5305127;28;20022;-68
2022/01/06 00:37:07;;;;;;;19.48;2.75;;;;;;;-146.48;100.00;46899.41;5305393;28;20020;-69
2022/01/06 00:39:39;;;;;;;14.73;1.30;;;;;;;-146.48;100.00;46843.50;5305330;28;20395;-69
2022/01/06 00:42:10;;;;;;;19.67;2.10;;;;;;;-146.48;100.00;46885.44;5304995;28;20033;-69
2022/01/06 00:44:41;;;;;;;17.63;1.92;;;;;;;-146.48;100.00;46981.28;5304886;28;20020;-69
2022/01/06 00:47:12;;;;;;;25.33;2.85;;;;;;;-146.48;100.00;46993.28;5305450;28;20511;-69
2022/01/06 00:49:44;;;;;;;25.02;2.15;;;;;;;-146.48;100.00;47067.16;5304209;28;20062;-69
2022/01/06 00:52:15;;;;;;;19.38;2.15;;;;;;;-146.48;100.00;46965.31;5305501;28;20024;-69
2022/01/06 00:54:46;;;;;;;19.27;1.90;;;;;;;-146.48;100.00;47045.19;5304239;28;20024;-69
2022/01/06 00:57:17;;;;;;;12.60;1.85;;;;;;;-146.48;100.00;47198.97;5305455;28;20027;-69
2022/01/06 00:59:49;;;;;;;17.33;1.92;;;;;;;-146.48;100.00;47073.16;5304793;28;20036;-69
2022/01/06 01:02:20;;;;;;;14.05;1.92;;;;;;;-146.48;100.00;47125.09;5304598;28;20028;-69
2022/01/06 01:04:51;;;;;;;21.77;2.78;;;;;;;-146.48;100.00;47185.00;5304798;28;20028;-68
2022/01/06 01:07:23;;;;;;;22.42;1.92;;;;;;;-146.48;100.00;47185.00;5305290;28;20127;-69
2022/01/06 01:09:54;;;;;;;20.65;2.22;;;;;;;-146.48;100.00;47206.97;5304196;28;20060;-69
2022/01/06 01:12:27;;;;;;;13.75;2.15;;;;;;;-146.48;100.00;47244.91;5305568;28;20120;-68
2022/01/06 01:15:05;;;;;;;13.77;2.00;;;;;;;-146.48;100.00;47318.81;5304395;28;20093;-68
2022/01/06 01:17:38;;;;;;;15.40;1.40;;;;;;;-146.48;100.00;47390.72;5303968;28;20387;-68
2022/01/06 01:20:09;;;;;;;20.73;2.45;;;;;;;-146.48;100.00;47308.81;5304917;28;20035;-68
2022/01/06 01:22:41;;;;;;;22.55;2.03;;;;;;;-146.48;100.00;47059.19;5304396;28;20024;-69
2022/01/06 01:25:13;;;;;;;18.63;2.40;;;;;;;-146.48;100.00;47274.88;5304280;28;20491;-68
2022/01/06 01:27:45;;;;;;;24.77;2.72;;;;;;;-146.48;100.00;47073.16;5304355;28;20474;-68
2022/01/06 01:30:16;;;;;;;22.83;1.87;;;;;;;-146.48;100.00;46955.34;5303807;28;20138;-69
2022/01/06 01:32:51;;;;;;;15.10;1.83;;;;;;;-146.48;100.00;47077.16;5304038;28;20036;-69
2022/01/06 01:35:22;;;;;;;21.52;2.60;;;;;;;-146.48;100.00;47067.16;5304809;28;20494;-68
2022/01/06 01:37:53;;;;;;;24.05;2.85;;;;;;;-146.48;100.00;47019.22;5303293;28;20059;-68
2022/01/06 01:40:26;;;;;;;22.10;2.53;;;;;;;-146.48;100.00;47065.16;5304097;28;20035;-68
2022/01/06 01:42:57;;;;;;;18.93;2.00;;;;;;;-146.48;100.00;47017.25;5303790;28;20038;-69
2022/01/06 01:45:31;;;;;;;16.37;1.90;;;;;;;-146.48;100.00;47037.22;5303687;28;20028;-68
2022/01/06 01:48:07;;;;;;;18.33;1.80;;;;;;;-146.48;100.00;47021.22;5303995;28;20027;-68
2022/01/06 01:50:38;;;;;;;21.57;1.77;;;;;;;-146.48;100.00;47141.06;5304035;28;20108;-68
2022/01/06 01:53:09;;;;;;;22.35;2.65;;;;;;;-146.48;100.00;47047.19;5303481;28;20110;-68
2022/01/06 01:55:41;;;;;;;24.00;2.53;;;;;;;-146.48;100.00;46983.28;5303888;28;20032;-70
2022/01/06 01:58:13;;;;;;;18.63;1.95;;;;;;;-146.48;100.00;46917.38;5303518;28;20035;-68
2022/01/06 02:00:44;;;;;;;20.03;2.33;;;;;;;-146.48;100.00;47147.03;5303752;28;20040;-69
2022/01/06 02:03:15;;;;;;;24.33;1.75;;;;;;;-146.48;100.00;47278.84;5304158;28;20069;-70
2022/01/06 02:05:46;;;;;;;20.23;1.47;;;;;;;-146.48;100.00;47262.88;5302760;28;20112;-69
2022/01/06 02:08:18;;;;;;;16.10;1.53;;;;;;;-146.48;100.00;47127.06;5304337;28;20046;-68
2022/01/06 02:10:49;;;;;;;22.42;2.05;;;;;;;-146.48;100.00;47127.06;5303503;28;20063;-68
2022/01/06 02:13:27;;;;;;;12.10;1.70;;;;;;;-146.48;100.00;47137.06;5303144;28;20470;-69
2022/01/06 02:16:01;;;;;;;23.52;1.70;;;;;;;-146.48;100.00;47278.84;5303164;28;20054;-68
2022/01/06 02:18:32;;;;;;;24.00;2.27;;;;;;;-146.48;100.00;47185.00;5303803;28;20367;-69
2022/01/06 02:21:04;;;;;;;19.27;2.07;;;;;;;-146.48;100.00;47135.06;5302567;28;20024;-69
2022/01/06 02:23:35;;;;;;;17.40;2.50;;;;;;;-146.48;100.00;46985.28;5303829;28;20036;-69
2022/01/06 02:26:06;;;;;;;18.05;1.80;;;;;;;-146.48;100.00;47015.25;5303160;28;20028;-69
2022/01/06 02:28:40;;;;;;;16.73;1.77;;;;;;;-146.48;100.00;46965.31;5302100;28;20028;-69
2022/01/06 02:31:11;;;;;;;18.53;1.80;;;;;;;-146.48;100.00;47019.22;5303554;28;20025;-69
2022/01/06 02:33:42;;;;;;;19.43;2.80;;;;;;;-146.48;100.00;47029.22;5302404;28;20477;-69
2022/01/06 02:36:14;;;;;;;17.77;1.88;;;;;;;-146.48;100.00;47083.13;5303595;28;20020;-69
2022/01/06 02:38:45;;;;;;;19.87;2.03;;;;;;;-146.48;100.00;46881.44;5303071;28;20459;-69
2022/01/06 02:41:17;;;;;;;18.57;1.60;;;;;;;-146.48;100.00;47145.06;5302694;28;20032;-69
2022/01/06 02:43:49;;;;;;;11.00;2.30;;;;;;;-146.48;100.00;47306.81;5302880;28;20107;-69
2022/01/06 02:46:21;;;;;;;14.77;1.37;;;;;;;-146.48;100.00;47175.00;5303310;28;20067;-68
2022/01/06 02:48:52;;;;;;;17.23;2.10;;;;;;;-146.48;100.00;47442.63;5302071;28;20025;-69
2022/01/06 02:51:23;;;;;;;18.97;1.90;;;;;;;-146.48;100.00;47392.69;5302937;28;20166;-69
2022/01/06 02:53:55;;;;;;;19.15;1.80;;;;;;;-146.48;100.00;47360.75;5302277;28;20031;-69
2022/01/06 02:56:26;;;;;;;17.37;1.57;;;;;;;-146.48;100.00;47420.66;5302570;28;20080;-69
2022/01/06 02:58:57;;;;;;;19.03;1.60;;;;;;;-146.48;100.00;47346.75;5302740;28;20039;-69
2022/01/06 03:01:29;;;;;;;22.50;2.43;;;;;;;-146.48;100.00;47362.75;5302398;28;20059;-68
2022/01/06 03:04:00;;;;;;;20.73;1.37;;;;;;;-146.48;100.00;47286.84;5302534;28;20032;-69
2022/01/06 03:06:32;;;;;;;17.90;1.77;;;;;;;-146.48;100.00;47384.72;5303278;28;20028;-69
2022/01/06 03:09:03;;;;;;;29.27;2.40;;;;;;;-146.48;100.00;47402.69;5301826;28;20032;-69
2022/01/06 03:11:40;;;;;;;29.97;1.80;;;;;;;-146.48;100.00;47496.56;5302986;28;20391;-69
2022/01/06 03:14:11;;;;;;;16.33;1.67;;;;;;;-146.48;100.00;47476.59;5302987;28;20024;-69
2022/01/06 03:16:43;;;;;;;19.93;1.37;;;;;;;-146.48;100.00;47522.53;5301452;28;20387;-69
2022/01/06 03:19:14;;;;;;;21.00;1.50;;;;;;;-146.48;100.00;47542.50;5302885;28;20555;-69
2022/01/06 03:21:45;;;;;;;21.33;1.87;;;;;;;-146.48;100.00;47388.72;5302490;28;20491;-69
2022/01/06 03:24:16;;;;;;;27.83;2.73;;;;;;;-146.48;100.00;47304.81;5302228;28;20032;-70
2022/01/06 03:26:48;;;;;;;25.13;2.00;;;;;;;-146.48;100.00;47364.75;5302330;28;20032;-69
2022/01/06 03:29:19;;;;;;;22.10;1.63;;;;;;;-146.48;100.00;47486.56;5302864;28;20031;-69
2022/01/06 03:31:50;;;;;;;17.93;1.57;;;;;;;-146.48;100.00;47418.66;5301454;28;20032;-69
2022/01/06 03:34:21;;;;;;;16.43;1.33;;;;;;;-146.48;100.00;47506.53;5302882;28;20020;-69
2022/01/06 03:36:53;;;;;;;16.67;1.57;;;;;;;-146.48;100.00;47504.56;5301296;28;20111;-69
2022/01/06 03:39:24;;;;;;;20.57;2.03;;;;;;;-146.48;100.00;47484.56;5302484;28;20459;-69
2022/01/06 03:41:56;;;;;;;19.50;1.20;;;;;;;-146.48;100.00;47606.41;5301907;28;20036;-69
2022/01/06 03:44:27;;;;;;;30.13;2.40;;;;;;;-146.48;100.00;47370.72;5301890;28;20439;-69
2022/01/06 03:46:58;;;;;;;23.47;2.20;;;;;;;-146.48;100.00;47404.69;5301989;28;20559;-69
2022/01/06 03:49:30;;;;;;;20.50;2.10;;;;;;;-146.48;100.00;47312.81;5302892;28;20027;-69
2022/01/06 03:52:02;;;;;;;16.80;1.83;;;;;;;-146.48;100.00;47480.59;5301346;28;20024;-69
2022/01/06 03:54:33;;;;;;;18.87;1.23;;;;;;;-146.48;100.00;47478.59;5302705;28;20073;-69
2022/01/06 03:57:04;;;;;;;18.57;1.63;;;;;;;-146.48;100.00;47556.47;5302079;28;20036;-69
2022/01/06 03:59:35;;;;;;;21.43;1.53;;;;;;;-146.48;100.00;47470.59;5301826;28;20360;-69
2022/01/06 04:02:07;;;;;;;16.87;1.27;;;;;;;-146.48;100.00;47480.59;5302331;28;20021;-69
2022/01/06 04:04:38;;;;;;;19.60;1.80;;;;;;;-146.48;100.00;47444.63;5304230;28;20061;-69
2022/01/06 04:07:09;;;;;;;20.87;2.53;;;;;;;-146.48;100.00;47384.72;5306479;28;20046;-69
2022/01/06 04:09:41;;;;;;;19.07;1.37;;;;;;;-146.48;100.00;47332.78;5305938;28;20017;-69
2022/01/06 04:12:12;;;;;;;17.43;1.57;;;;;;;-146.48;100.00;47141.06;5305700;28;20025;-69
2022/01/06 04:14:43;;;;;;;26.03;1.77;;;;;;;-146.48;100.00;47198.97;5305670;28;20020;-69
2022/01/06 04:17:14;;;;;;;19.57;1.60;;;;;;;-146.48;100.00;47230.94;5306335;28;20469;-69
2022/01/06 04:19:46;;;;;;;15.88;1.30;;;;;;;-146.48;100.00;47334.78;5305019;28;20028;-69
2022/01/06 04:22:17;;;;;;;19.87;1.90;;;;;;;-146.48;100.00;47446.63;5306105;28;20032;-69
2022/01/06 04:24:48;;;;;;;19.73;1.60;;;;;;;-146.48;100.00;47416.66;5305571;28;20020;-69
2022/01/06 04:27:20;;;;;;;20.57;1.70;;;;;;;-146.48;100.00;47368.72;5305343;28;20394;-69
2022/01/06 04:29:51;;;;;;;17.97;2.50;;;;;;;-146.48;100.00;47250.91;5305686;28;20059;-69
2022/01/06 04:32:22;;;;;;;21.97;2.13;;;;;;;-146.48;100.00;47278.84;5306102;28;20046;-69
2022/01/06 04:34:54;;;;;;;19.83;1.37;;;;;;;-146.48;100.00;47224.94;5304636;28;20100;-70
2022/01/06 04:37:27;;;;;;;24.90;2.73;;;;;;;-146.48;100.00;47252.91;5305986;28;20031;-69
2022/01/06 04:39:58;;;;;;;24.47;1.80;;;;;;;-146.48;100.00;47222.94;5304446;28;20066;-69
2022/01/06 04:42:29;;;;;;;18.47;1.97;;;;;;;-146.48;100.00;47017.25;5306073;28;20063;-69
2022/01/06 04:45:00;;;;;;;18.57;2.13;;;;;;;-146.48;100.00;47206.97;5305340;28;20108;-69
2022/01/06 04:47:32;;;;;;;20.53;1.83;;;;;;;-146.48;100.00;47274.88;5304779;28;20058;-69
2022/01/06 04:50:04;;;;;;;24.20;1.80;;;;;;;-146.48;100.00;47328.78;5305167;28;20024;-69
2022/01/06 04:52:35;;;;;;;18.93;2.70;;;;;;;-146.48;100.00;47288.84;5305594;28;20474;-69
2022/01/06 04:55:07;;;;;;;16.80;1.43;;;;;;;-146.48;100.00;47276.88;5304283;28;20144;-70
2022/01/06 04:57:39;;;;;;;13.63;1.27;;;;;;;-146.48;100.00;47268.88;5304683;28;20031;-69
2022/01/06 05:00:10;;;;;;;18.03;1.80;;;;;;;-146.48;100.00;47228.94;5305468;28;20391;-70
2022/01/06 05:02:42;;;;;;;18.47;1.67;;;;;;;-146.48;100.00;47210.97;5303968;28;20024;-70
2022/01/06 05:05:13;;;;;;;19.30;1.90;;;;;;;-146.48;100.00;47073.16;5305269;28;20486;-69
2022/01/06 05:07:45;;;;;;;18.33;1.73;;;;;;;-146.48;100.00;47208.97;5304711;28;20031;-69
2022/01/06 05:10:16;;;;;;;14.40;1.80;;;;;;;-146.48;100.00;47149.03;5304458;28;20375;-69
2022/01/06 05:12:47;;;;;;;22.57;1.50;;;;;;;-146.48;100.00;47129.06;5304634;28;20426;-69
2022/01/06 05:15:18;;;;;;;19.63;2.63;;;;;;;-146.48;100.00;46983.28;5303313;28;20689;-69
2022/01/06 05:17:50;;;;;;;23.27;2.10;;;;;;;-146.48;100.00;47053.19;5304518;28;20467;-69
2022/01/06 05:20:25;;;;;;;20.73;2.20;;;;;;;-146.48;100.00;46969.31;5305136;28;20039;-69
2022/01/06 05:22:57;;;;;;;24.57;3.17;;;;;;;-146.48;100.00;46783.59;5303670;28;20203;-70
2022/01/06 05:25:30;;;;;;;27.23;2.40;;;;;;;-146.48;100.00;46853.47;5304987;28;20070;-69
2022/01/06 05:28:02;;;;;;;20.30;2.73;;;;;;;-146.48;100.00;46951.34;5304383;28;20024;-69
2022/01/06 05:30:33;;;;;;;19.33;2.40;;;;;;;-146.48;100.00;47133.06;5304063;28;20380;-69
2022/01/06 05:33:05;;;;;;;11.60;1.77;;;;;;;-146.48;100.00;47334.78;5304154;28;20511;-69
2022/01/06 05:35:36;;;;;;;27.23;3.17;;;;;;;-146.48;100.00;47320.81;5304660;28;20463;-69
2022/01/06 05:38:07;;;;;;;26.07;2.63;;;;;;;-146.48;100.00;47171.00;5303872;28;20028;-69
2022/01/06 05:40:39;;;;;;;18.93;2.17;;;;;;;-146.48;100.00;46875.44;5303948;28;20101;-70
2022/01/06 05:43:11;;;;;;;12.23;2.40;;;;;;;-146.48;100.00;47031.22;5303974;28;20443;-69
2022/01/06 05:45:42;;;;;;;17.50;1.80;;;;;;;-146.48;100.00;47017.25;5303897;28;20028;-69
2022/01/06 05:48:14;;;;;;;18.37;1.73;;;;;;;-146.48;100.00;46985.28;5304526;28;20028;-69
2022/01/06 05:50:48;;;;;;;19.37;2.17;;;;;;;-146.48;100.00;46923.38;5302869;28;20088;-68
2022/01/06 05:53:20;;;;;;;21.00;2.07;;;;;;;-146.48;100.00;47005.25;5304632;28;20024;-69
2022/01/06 05:55:51;;;;;;;22.57;2.60;;;;;;;-146.48;100.00;46995.28;5303626;28;20024;-69
2022/01/06 05:58:22;;;;;;;23.40;3.83;;;;;;;-146.48;100.00;47103.13;5303327;28;20422;-69
2022/01/06 06:00:53;;;;;;;18.13;3.63;;;;;;;-146.48;100.00;47153.03;5303723;28;20031;-69
2022/01/06 06:03:28;;;;;;;20.17;3.73;;;;;;;-146.48;100.00;47191.00;5304115;28;20027;-71
2022/01/06 06:05:59;;;;;;;27.60;6.13;;;;;;;-146.48;100.00;47212.94;5302949;28;20023;-69
2022/01/06 06:08:30;;;;;;;17.50;3.67;;;;;;;-146.48;100.00;47089.13;5304279;28;20024;-70
2022/01/06 06:11:01;;;;;;;22.63;4.97;;;;;;;-146.48;100.00;46957.31;5303507;28;20028;-69
2022/01/06 06:13:33;;;;;;;18.87;4.73;;;;;;;-146.48;100.00;47107.09;5303219;28;20024;-69
2022/01/06 06:16:04;;;;;;;19.57;2.23;;;;;;;-146.48;100.00;47083.13;5303449;28;20115;-69
2022/01/06 06:18:36;;;;;;;17.47;2.50;;;;;;;-146.48;100.00;47224.94;5303193;28;20038;-69
2022/01/06 06:21:08;;;;;;;19.80;2.40;;;;;;;-146.48;100.00;47304.81;5303640;28;20031;-69
2022/01/06 06:23:42;;;;;;;17.47;3.63;;;;;;;-146.48;100.00;47338.78;5303088;28;20032;-69
2022/01/06 06:26:13;;;;;;;20.00;2.73;;;;;;;-146.48;100.00;47270.88;5302714;28;20031;-69
2022/01/06 06:28:44;;;;;;;18.33;2.10;;;;;;;-146.48;100.00;47224.94;5288031;28;20041;-70
2022/01/06 06:31:15;;;;;;;18.90;2.27;;;;;;;-146.48;100.00;47304.81;5301900;28;20030;-69
2022/01/06 06:33:47;;;;;;;20.83;1.60;;;;;;;-146.48;100.00;47214.94;5301051;28;20028;-70
2022/01/06 06:36:18;;;;;;;23.00;2.50;;;;;;;-146.48;100.00;47236.91;5302674;28;20035;-69
2022/01/06 06:38:49;;;;;;;17.27;2.27;;;;;;;-146.48;100.00;47328.78;5301909;28;20027;-69
2022/01/06 06:41:21;;;;;;;23.97;2.30;;;;;;;-146.48;100.00;47272.88;5302815;28;20027;-69
2022/01/06 06:43:52;;;;;;;19.30;1.67;;;;;;;-146.48;100.00;47316.81;5302990;28;20051;-69
2022/01/06 06:46:23;;;;;;;18.17;2.10;;;;;;;-146.48;100.00;47272.88;5302795;28;20051;-69
2022/01/06 06:48:54;;;;;;;13.63;1.70;;;;;;;-146.48;100.00;47356.75;5302208;28;20031;-69
2022/01/06 06:51:26;;;;;;;14.90;1.80;;;;;;;-146.48;100.00;47252.91;5303135;28;20489;-69
2022/01/06 06:53:57;;;;;;;18.30;1.80;;;;;;;-146.48;100.00;47398.69;5301883;28;20383;-70
2022/01/06 06:56:28;;;;;;;19.90;1.90;;;;;;;-146.48;100.00;47408.69;5303274;28;20031;-69
2022/01/06 06:59:00;;;;;;;23.00;2.47;;;;;;;-146.48;100.00;47400.69;5302413;28;20107;-69
2022/01/06 07:01:31;;;;;;;14.67;1.70;;;;;;;-146.48;100.00;47372.72;5302266;28;20048;-69
2022/01/06 07:04:02;;;;;;;15.07;2.03;;;;;;;-146.48;100.00;47252.91;5302450;28;20020;-69
2022/01/06 07:06:33;;;;;;;17.23;1.97;;;;;;;-146.48;100.00;47332.78;5303072;28;20043;-69
2022/01/06 07:09:05;;;;;;;19.07;2.27;;;;;;;-146.48;100.00;47324.78;5301877;28;20032;-69
2022/01/06 07:11:36;;;;;;;16.50;2.13;;;;;;;-146.48;100.00;47244.91;5302555;28;20028;-69
2022/01/06 07:14:08;;;;;;;16.10;2.60;;;;;;;-146.48;100.00;47232.94;5302847;28;20445;-69
2022/01/06 07:16:39;;;;;;;16.43;1.87;;;;;;;-146.48;100.00;47296.84;5301759;28;20028;-69
2022/01/06 07:19:10;;;;;;;17.27;2.07;;;;;;;-146.48;100.00;47280.84;5302917;28;20085;-69
2022/01/06 07:21:42;;;;;;;18.83;2.50;;;;;;;-146.48;100.00;47262.88;5301469;28;20058;-69
2022/01/06 07:24:13;;;;;;;20.60;1.97;;;;;;;-146.48;100.00;47418.66;5302881;28;20031;-69
2022/01/06 07:26:44;;;;;;;18.73;2.57;;;;;;;-146.48;100.00;47522.53;5302114;28;20035;-69
2022/01/06 07:29:16;;;;;;;13.53;1.60;;;;;;;-146.48;100.00;47550.50;5302403;28;20056;-68
2022/01/06 07:31:47;;;;;;;17.90;3.40;;;;;;;-146.48;100.00;47380.72;5302279;28;20020;-69
2022/01/06 07:34:19;;;;;;;19.97;3.20;;;;;;;-146.48;100.00;47368.72;5302867;28;20028;-69
2022/01/06 07:36:50;;;;;;;20.40;3.47;;;;;;;-146.48;100.00;47430.66;5301268;28;20063;-68
2022/01/06 07:39:22;;;;;;;19.63;5.97;;;;;;;-146.48;100.00;47522.53;5305432;28;20032;-69
2022/01/06 07:41:53;;;;;;;24.17;5.00;;;;;;;-146.48;100.00;47580.44;5306674;28;20031;-69
2022/01/06 07:44:24;;;;;;;21.53;3.93;;;;;;;-146.48;100.00;47588.44;5306352;28;20024;-69
2022/01/06 07:46:56;;;;;;;17.80;3.40;;;;;;;-146.48;100.00;47570.47;5306155;28;20055;-69
2022/01/06 07:49:27;;;;;;;33.90;10.57;;;;;;;-146.48;100.00;47444.63;5305796;28;20027;-69
2022/01/06 07:51:59;;;;;;;21.60;6.20;;;;;;;-146.48;100.00;47372.72;5303716;28;20020;-70
2022/01/06 07:54:30;;;;;;;20.77;3.37;;;;;;;-146.48;100.00;47280.84;5305484;28;20073;-70
2022/01/06 07:57:01;;;;;;;18.87;2.67;;;;;;;-146.48;100.00;47368.72;5304037;28;20028;-69
2022/01/06 07:59:33;;;;;;;18.87;2.90;;;;;;;-146.48;100.00;47430.66;5305213;28;20028;-70
2022/01/06 08:02:04;;;;;;;19.20;2.20;;;;;;;-146.48;100.00;47432.66;5304801;28;20024;-69
2022/01/06 08:04:36;;;;;;;15.77;3.47;;;;;;;-146.48;100.00;47368.72;5304139;28;20107;-69
2022/01/06 08:07:08;;;;;;;15.77;3.43;;;;;;;-146.48;100.00;47464.59;5304834;28;20020;-70
2022/01/06 08:09:43;;;;;;;17.83;3.73;;;;;;;-146.48;100.00;47516.53;5304420;28;20153;-69
2022/01/06 08:12:14;;;;;;;25.97;6.80;;;;;;;-146.48;100.00;47528.50;5304125;28;20032;-69
2022/01/06 08:14:45;;;;;;;24.83;5.57;;;;;;;-146.48;100.00;47456.63;5304493;28;20043;-69
2022/01/06 08:17:17;;;;;;;25.73;6.57;;;;;;;-146.48;100.00;47546.50;5304782;28;20024;-68
2022/01/06 08:19:48;;;;;;;25.70;5.97;;;;;;;-146.48;100.00;47572.47;5303637;28;20020;-69
2022/01/06 08:22:20;;;;;;;19.63;4.20;;;;;;;-146.48;100.00;47560.47;5304953;28;20157;-69
2022/01/06 08:24:54;;;;;;;23.77;5.90;;;;;;;-146.48;100.00;47340.78;5304369;28;20024;-70
2022/01/06 08:27:25;;;;;;;24.13;6.13;;;;;;;-146.48;100.00;47167.03;5304996;28;20445;-69
2022/01/06 08:29:57;;;;;;;20.53;7.27;;;;;;;-146.48;100.00;47198.97;5303796;28;20057;-68
2022/01/06 08:32:28;;;;;;;29.93;11.80;;;;;;;-146.48;100.00;47147.03;5304120;28;20031;-69
2022/01/06 08:34:59;;;;;;;24.30;7.67;;;;;;;-146.48;100.00;47133.06;5304289;28;20042;-71
2022/01/06 08:37:31;;;;;;;16.17;4.50;;;;;;;-146.48;100.00;46865.47;5304646;28;20108;-69
2022/01/06 08:40:03;;;;;;;17.50;4.70;;;;;;;-146.48;100.00;46659.78;5303373;28;20115;-70
2022/01/06 08:42:34;;;;;;;17.40;4.63;;;;;;;-146.48;100.00;46569.94;5304254;28;20039;-69
2022/01/06 08:45:06;;;;;;;16.20;4.13;;;;;;;-146.48;100.00;46645.81;5303738;28;20020;-70
2022/01/06 08:47:38;;;;;;;19.27;4.87;;;;;;;-146.48;100.00;46687.75;5302857;28;20044;-70
2022/01/06 08:50:09;;;;;;;24.00;4.83;;;;;;;-146.48;100.00;46893.41;5303302;28;20036;-70
2022/01/06 08:52:42;;;;;;;22.47;4.37;;;;;;;-146.48;100.00;46673.75;5303908;28;20103;-71
2022/01/06 08:55:13;;;;;;;18.13;3.70;;;;;;;-146.48;100.00;46611.84;5303407;28;20016;-70
2022/01/06 08:57:44;;;;;;;14.17;3.93;;;;;;;-146.48;100.00;46360.25;5303563;28;20031;-71
2022/01/06 09:00:16;;;;;;;17.43;5.57;;;;;;;-146.48;100.00;46474.06;5303472;28;20020;-70
2022/01/06 09:02:47;;;;;;;17.07;4.73;;;;;;;-146.48;100.00;46142.63;5303353;28;20020;-70
2022/01/06 09:05:18;;;;;;;18.23;4.10;;;;;;;-146.48;100.00;46162.59;5304452;28;20035;-70
2022/01/06 09:07:50;;;;;;;18.37;4.47;;;;;;;-146.48;100.00;46214.50;5302612;28;20016;-69
2022/01/06 09:10:23;;;;;;;20.13;5.10;;;;;;;-146.48;100.00;46555.94;5305275;28;20053;-68
2022/01/06 09:12:54;;;;;;;17.10;4.97;;;;;;;-146.48;100.00;46765.63;5304489;28;20016;-69
2022/01/06 09:15:26;;;;;;;18.77;4.97;;;;;;;-146.48;100.00;46531.97;5304175;28;20547;-69
2022/01/06 09:17:57;;;;;;;16.60;5.57;;;;;;;-146.48;100.00;46336.31;5304483;28;20478;-69
2022/01/06 09:20:32;;;;;;;21.77;4.83;;;;;;;-146.48;100.00;46470.09;5304477;28;20020;-69
2022/01/06 09:23:03;;;;;;;15.17;5.20;;;;;;;-146.48;100.00;46288.38;5302605;28;20047;-70
2022/01/06 09:25:34;;;;;;;15.43;5.22;;;;;;;-146.48;100.00;46150.63;5305113;28;20024;-69
2022/01/06 09:28:05;;;;;;;15.13;4.30;;;;;;;-146.48;100.00;46076.75;5304260;28;20031;-69
2022/01/06 09:30:38;;;;;;;18.88;4.55;;;;;;;-146.48;100.00;45956.94;5303817;28;20031;-69
2022/01/06 09:33:09;;;;;;;16.48;5.00;;;;;;;-146.48;100.00;46050.78;5304699;28;20364;-70
2022/01/06 09:35:41;;;;;;;20.52;5.30;;;;;;;-146.48;100.00;46076.75;5303044;28;20036;-70
2022/01/06 09:38:13;;;;;;;21.98;5.03;;;;;;;-146.48;100.00;46224.50;5303331;28;20028;-70
2022/01/06 09:40:45;;;;;;;19.48;5.10;;;;;;;-146.48;100.00;46196.53;5304054;28;20107;-70
2022/01/06 09:43:24;;;;;;;19.77;5.63;;;;;;;-146.48;100.00;46208.50;5303484;28;20218;-69
2022/01/06 09:45:55;;;;;;;;;;;;;;;-146.48;100.00;46366.25;5303834;28;20475;-69
2022/01/06 09:48:29;;;;;;;15.98;4.53;;;;;;;-146.48;100.00;46282.38;5304324;28;19916;-69
2022/01/06 09:51:00;;;;;;;20.55;6.10;;;;;;;-146.48;100.00;46268.41;5303115;28;20027;-70
2022/01/06 09:53:32;;;;;;;14.85;4.68;;;;;;;-146.48;100.00;46338.28;5304100;28;20054;-69
2022/01/06 09:56:03;;;;;;;20.45;5.28;;;;;;;-146.48;100.00;46314.34;5303719;28;20031;-70
2022/01/06 09:58:35;;;;;;;21.13;5.10;;;;;;;-146.48;100.00;46368.25;5302947;28;20031;-70
2022/01/06 10:01:06;;;;;;;30.50;5.83;;;;;;;-146.48;100.00;46406.19;5302730;28;20031;-70
2022/01/06 10:03:41;;;;;;;15.57;4.13;;;;;;;-146.48;100.00;46412.19;5302100;28;20107;-70
2022/01/06 10:06:18;;;;;;;16.83;4.75;;;;;;;-146.48;100.00;46430.16;5304022;28;20027;-70
2022/01/06 10:09:03;;;;;;;17.65;4.85;;;;;;;-146.48;100.00;46478.06;5303380;28;20528;-70
2022/01/06 10:11:35;;;;;;;21.30;4.20;;;;;;;-146.48;100.00;46418.16;5303195;28;20051;-70
2022/01/06 10:14:11;;;;;;;19.80;4.55;;;;;;;-146.48;100.00;46346.28;5303384;28;20527;-70
2022/01/06 10:16:45;;;;;;;16.35;3.90;;;;;;;-146.48;100.00;46416.16;5303418;28;20375;-70
2022/01/06 10:19:17;;;;;;;19.58;4.05;;;;;;;-146.48;100.00;46324.31;5302954;28;20063;-70
2022/01/06 10:21:56;;;;;;;20.20;3.70;;;;;;;-146.48;100.00;46224.50;5303504;28;20039;-70
2022/01/06 10:24:28;;;;;;;15.00;3.90;;;;;;;-146.48;100.00;46260.44;5303082;28;20107;-70
2022/01/06 10:27:07;;;;;;;14.88;3.88;;;;;;;-146.48;100.00;46254.44;5303046;28;20534;-70
2022/01/06 10:29:44;;;;;;;17.40;3.70;;;;;;;-146.48;100.00;46356.28;5303089;28;20020;-70
2022/01/06 10:32:20;;;;;;;11.52;3.30;;;;;;;-146.48;100.00;46278.41;5302679;28;20032;-70
2022/01/06 10:34:53;;;;;;;20.42;4.68;;;;;;;-146.48;100.00;46246.44;5303229;28;20093;-70
2022/01/06 10:37:40;;;;;;;16.73;3.08;;;;;;;-146.48;100.00;45964.94;5303625;28;20514;-70
2022/01/06 10:40:17;;;;;;;15.98;3.20;;;;;;;-146.48;100.00;45835.16;5302525;28;20042;-70
2022/01/06 10:42:53;;;;;;;17.83;3.38;;;;;;;-146.48;100.00;45591.59;5302718;28;20020;-71
2022/01/06 10:45:27;;;;;;;18.45;3.58;;;;;;;-146.48;100.00;45376.00;5302921;28;20482;-69
2022/01/06 10:48:01;;;;;;;15.70;3.05;;;;;;;-146.48;100.00;45282.19;5301720;28;20056;-71
2022/01/06 10:50:37;;;;;;;15.27;3.05;;;;;;;-146.48;100.00;45148.44;5303143;28;20101;-70
2022/01/06 10:53:11;;;;;;;15.82;3.97;;;;;;;-146.48;100.00;45248.25;5302752;28;20398;-70
2022/01/06 10:55:44;;;;;;;14.75;2.22;;;;;;;-146.48;100.00;45188.38;5302785;28;20494;-70
2022/01/06 10:58:25;;;;;;;19.50;3.75;;;;;;;-146.48;100.00;45088.56;5303257;28;20395;-70
2022/01/06 11:01:03;;;;;;;13.68;2.67;;;;;;;-146.48;100.00;45018.69;5299715;28;20131;-70
2022/01/06 11:03:36;;;;;;;12.60;2.08;;;;;;;-146.48;100.00;44894.94;5302268;28;20504;-71
2022/01/06 11:06:07;;;;;;;14.55;2.58;;;;;;;-146.48;100.00;44795.16;5301545;28;20017;-70
2022/01/06 11:08:41;;;;;;;15.90;2.75;;;;;;;-146.48;100.00;44699.34;5300446;28;20386;-71
2022/01/06 11:13:46;;;;;;;11.02;2.35;;;;;;;-146.48;100.00;44531.69;5299219;28;20039;-71
2022/01/06 11:16:19;;;;;;;10.80;2.38;;;;;;;-146.48;100.00;44419.94;5301927;28;20027;-71
2022/01/06 11:18:56;;;;;;;18.10;4.03;;;;;;;-146.48;100.00;44254.28;5301168;28;20134;-71
2022/01/06 11:21:39;;;;;;;10.95;2.08;;;;;;;-146.48;100.00;44204.41;5301171;28;20028;-71
2022/01/06 11:24:12;;;;;;;20.25;3.10;;;;;;;-146.48;100.00;44006.84;5301733;28;20498;-71
2022/01/06 11:26:57;;;;;;;13.48;3.88;;;;;;;-146.48;100.00;43966.91;5300144;28;20070;-71
2022/01/06 11:29:44;;;;;;;12.13;2.35;;;;;;;-146.48;100.00;44194.41;5301044;28;20032;-71
2022/01/06 11:32:21;;;;;;;10.95;1.88;;;;;;;-146.48;100.00;44094.63;5301683;28;20032;-71
2022/01/06 11:35:04;;;;;;;15.52;2.75;;;;;;;-146.48;100.00;43923.03;5300197;28;20028;-71